Rumney, United Kingdom
Current Conditions -  °F | °C
As of 5:20 AM on Wednesday 26 Nov 2014 (Local Time) from EGFF Reporting Station
Drizzle Drizzle  
Wind Chill: 41°   Ceiling: 700
Heat Index: 45°   Visibility: 1.8mi
Dew Point: 43°   Wind: 6mph
Humidity: 93%   Direction: 360°N
Pressure: 29.91"   Gusts: NA
Location:  51.5°N, 3.13°W
Report Text: EGFF 260520Z AUTO 36005KT 3000 -DZ OVC007 07/06 Q1013 RERA
Loading
Personal Weather Stations






























Interactive Weather Map New forecast layout! Learn more

10-Day Weather Forecast

Advertisements
Track Severe Weather on mobile